createdAt,value
2022-10-23T00:01:46.934Z,12.50
2022-10-23T00:04:19.560Z,13.50
2022-10-23T00:06:48.793Z,16.97
2022-10-23T00:09:19.096Z,14.87
2022-10-23T00:11:51.380Z,14.83
2022-10-23T00:14:22.713Z,13.37
2022-10-23T00:16:50.800Z,13.13
2022-10-23T00:19:18.614Z,13.77
2022-10-23T00:21:46.350Z,13.00
2022-10-23T00:24:13.927Z,11.53
2022-10-23T00:26:42.074Z,12.17
2022-10-23T00:29:10.460Z,12.57
2022-10-23T00:31:38.818Z,13.00
2022-10-23T00:34:09.015Z,14.10
2022-10-23T00:36:37.132Z,15.07
2022-10-23T00:39:06.223Z,11.67
2022-10-23T00:41:34.405Z,13.70
2022-10-23T00:44:28.155Z,13.63
2022-10-23T00:47:02.734Z,18.57
2022-10-23T00:49:32.476Z,17.07
2022-10-23T00:52:07.321Z,13.67
2022-10-23T00:54:38.994Z,13.70
2022-10-23T00:57:10.234Z,15.00
2022-10-23T00:59:38.007Z,14.57
2022-10-23T01:02:06.559Z,16.63
2022-10-23T01:04:38.338Z,16.43
2022-10-23T01:07:14.827Z,15.07
2022-10-23T01:10:08.982Z,13.87
2022-10-23T01:12:59.928Z,14.13
2022-10-23T01:15:31.642Z,15.10
2022-10-23T01:18:12.390Z,14.83
2022-10-23T01:21:08.328Z,12.33
2022-10-23T01:23:42.874Z,15.57
2022-10-23T01:26:34.887Z,15.07
2022-10-23T01:29:36.064Z,15.23
2022-10-23T01:32:11.302Z,17.50
2022-10-23T01:34:48.201Z,14.53
2022-10-23T01:37:23.741Z,14.97
2022-10-23T01:39:57.422Z,15.73
2022-10-23T01:42:34.432Z,13.63
2022-10-23T01:45:08.581Z,15.70
2022-10-23T01:47:37.292Z,16.97
2022-10-23T01:50:07.704Z,15.47
2022-10-23T01:52:38.262Z,19.73
2022-10-23T01:55:08.252Z,14.70
2022-10-23T01:57:37.824Z,16.63
2022-10-23T02:00:10.829Z,15.53
2022-10-23T02:02:41.474Z,15.23
2022-10-23T02:05:12.850Z,18.73
2022-10-23T02:07:40.959Z,16.10
2022-10-23T02:10:10.283Z,17.93
2022-10-23T02:13:08.815Z,17.37
2022-10-23T02:15:46.468Z,17.27
2022-10-23T02:18:45.388Z,17.43
2022-10-23T02:21:18.255Z,16.47
2022-10-23T02:23:56.303Z,17.53
2022-10-23T02:26:38.800Z,19.87
2022-10-23T02:29:30.145Z,17.03
2022-10-23T02:32:01.651Z,19.37
2022-10-23T02:34:30.339Z,16.97
2022-10-23T02:36:58.175Z,16.83
2022-10-23T02:39:28.405Z,17.60
2022-10-23T02:42:28.431Z,16.47
2022-10-23T02:45:08.127Z,18.03
2022-10-23T02:48:04.361Z,18.53
2022-10-23T02:51:16.530Z,16.60
2022-10-23T02:53:53.175Z,19.83
2022-10-23T02:56:54.637Z,17.87
2022-10-23T02:59:27.493Z,22.83
2022-10-23T03:04:59.840Z,23.77
2022-10-23T03:07:33.857Z,26.13
2022-10-23T03:10:02.240Z,25.33
2022-10-23T03:12:30.262Z,21.07
2022-10-23T03:14:58.439Z,20.00
2022-10-23T03:17:26.431Z,23.50
2022-10-23T03:19:54.669Z,22.13
2022-10-23T03:22:22.181Z,22.03
2022-10-23T03:24:50.129Z,25.10
2022-10-23T03:27:17.682Z,24.03
2022-10-23T03:29:45.450Z,27.23
2022-10-23T03:32:13.170Z,25.67
2022-10-23T03:34:40.702Z,23.77
2022-10-23T03:37:08.395Z,21.47
2022-10-23T03:39:38.866Z,21.80
2022-10-23T03:42:06.915Z,20.23
2022-10-23T03:44:35.465Z,20.47
2022-10-23T03:47:03.602Z,22.13
2022-10-23T03:49:37.958Z,23.10
2022-10-23T03:52:06.711Z,25.00
2022-10-23T03:54:34.918Z,25.50
2022-10-23T03:57:03.184Z,26.17
2022-10-23T03:59:31.180Z,23.83
2022-10-23T04:02:01.870Z,26.20
2022-10-23T04:04:29.635Z,29.13
2022-10-23T04:06:57.327Z,29.87
2022-10-23T04:09:25.272Z,27.17
2022-10-23T04:11:56.107Z,26.87
2022-10-23T04:14:24.089Z,26.90
2022-10-23T04:16:52.006Z,24.93
2022-10-23T04:19:19.779Z,26.03
2022-10-23T04:21:50.577Z,26.03
2022-10-23T04:24:18.223Z,24.00
2022-10-23T04:26:45.814Z,26.60
2022-10-23T04:29:14.060Z,24.60
2022-10-23T04:31:41.934Z,25.43
2022-10-23T04:34:09.647Z,20.33
2022-10-23T04:36:37.237Z,23.20
2022-10-23T04:39:04.957Z,24.50
2022-10-23T04:41:36.183Z,25.80
2022-10-23T04:44:04.056Z,24.73
2022-10-23T04:46:32.343Z,23.90
2022-10-23T04:49:00.865Z,23.63
2022-10-23T04:51:29.018Z,21.93
2022-10-23T04:53:59.633Z,23.40
2022-10-23T04:56:27.133Z,23.33
2022-10-23T04:58:55.285Z,26.30
2022-10-23T05:01:23.086Z,24.93
2022-10-23T05:03:55.043Z,22.30
2022-10-23T05:06:23.072Z,22.60
2022-10-23T05:08:51.359Z,18.20
2022-10-23T05:11:19.253Z,20.00
2022-10-23T05:13:47.199Z,21.83
2022-10-23T05:16:44.365Z,23.70
2022-10-23T05:19:15.584Z,20.57
2022-10-23T05:21:43.514Z,22.60
2022-10-23T05:24:12.326Z,23.27
2022-10-23T05:26:39.796Z,23.87
2022-10-23T05:29:07.384Z,22.83
2022-10-23T05:31:36.836Z,23.07
2022-10-23T05:34:04.185Z,24.43
2022-10-23T05:36:32.481Z,21.67
2022-10-23T05:39:00.468Z,21.57
2022-10-23T05:41:27.856Z,20.80
2022-10-23T05:43:55.266Z,17.93
2022-10-23T05:46:23.525Z,20.47
2022-10-23T05:48:51.738Z,22.97
2022-10-23T05:51:23.747Z,21.13
2022-10-23T05:53:52.334Z,20.07
2022-10-23T05:56:19.959Z,22.17
2022-10-23T05:58:47.280Z,19.17
2022-10-23T06:01:15.864Z,20.73
2022-10-23T06:03:43.200Z,31.07
2022-10-23T06:06:10.525Z,25.37
2022-10-23T06:08:37.902Z,25.77
2022-10-23T06:11:10.266Z,21.53
2022-10-23T06:13:38.254Z,17.70
2022-10-23T06:16:20.123Z,15.43
2022-10-23T06:18:48.302Z,16.23
2022-10-23T06:21:16.908Z,16.90
2022-10-23T06:23:45.760Z,15.10
2022-10-23T06:26:15.384Z,13.57
2022-10-23T06:28:43.055Z,17.90
2022-10-23T06:31:13.461Z,11.83
2022-10-23T06:33:41.867Z,13.27
2022-10-23T06:36:10.955Z,15.67
2022-10-23T06:38:40.824Z,11.73
2022-10-23T06:41:14.164Z,14.80
2022-10-23T06:43:41.845Z,13.63
2022-10-23T06:46:10.171Z,13.80
2022-10-23T06:48:37.518Z,15.83
2022-10-23T06:51:07.416Z,14.13
2022-10-23T06:53:36.179Z,12.97
2022-10-23T06:56:06.147Z,12.07
2022-10-23T06:58:35.031Z,14.20
2022-10-23T07:01:07.327Z,13.40
2022-10-23T07:03:35.783Z,15.33
2022-10-23T07:06:07.241Z,12.90
2022-10-23T07:08:35.001Z,10.27
2022-10-23T07:11:07.380Z,12.07
2022-10-23T07:13:36.129Z,17.73
2022-10-23T07:16:12.156Z,15.40
2022-10-23T07:18:39.809Z,12.63
2022-10-23T07:21:07.288Z,15.87
2022-10-23T07:23:34.846Z,11.50
2022-10-23T07:26:11.162Z,12.97
2022-10-23T07:28:39.250Z,12.37
2022-10-23T07:31:06.586Z,9.97
2022-10-23T07:33:36.993Z,7.60
2022-10-23T07:36:08.882Z,8.37
2022-10-23T07:38:36.694Z,7.93
2022-10-23T07:41:06.865Z,10.57
2022-10-23T07:43:37.839Z,8.53
2022-10-23T07:46:05.511Z,8.40
2022-10-23T07:48:33.108Z,7.80
2022-10-23T07:51:02.247Z,10.77
2022-10-23T07:53:30.015Z,11.10
2022-10-23T07:56:01.695Z,12.33
2022-10-23T07:58:30.094Z,7.77
2022-10-23T08:01:03.063Z,8.97
2022-10-23T08:03:32.735Z,42.17
2022-10-23T08:06:00.634Z,22.33
2022-10-23T08:08:28.194Z,8.87
2022-10-23T08:10:56.017Z,7.50
2022-10-23T08:13:24.459Z,12.23
2022-10-23T08:15:53.591Z,85.17
2022-10-23T08:18:21.162Z,39.60
2022-10-23T08:20:51.380Z,33.33
2022-10-23T08:23:20.251Z,14.87
2022-10-23T08:25:47.959Z,11.00
2022-10-23T08:28:17.248Z,6.63
2022-10-23T08:30:44.511Z,7.27
2022-10-23T08:33:11.812Z,10.50
2022-10-23T08:35:39.560Z,7.47
2022-10-23T08:38:08.241Z,6.20
2022-10-23T08:40:36.550Z,7.03
2022-10-23T08:43:12.268Z,9.90
2022-10-23T08:46:04.238Z,26.77
2022-10-23T08:48:51.624Z,6.23
2022-10-23T08:51:26.411Z,5.10
2022-10-23T08:54:10.818Z,7.60
2022-10-23T08:57:11.856Z,5.77
2022-10-23T08:59:43.544Z,8.63
2022-10-23T09:02:17.823Z,4.60
2022-10-23T09:04:49.078Z,4.87
2022-10-23T09:07:56.730Z,5.00
2022-10-23T09:10:48.144Z,6.60
2022-10-23T09:14:00.149Z,4.93
2022-10-23T09:16:58.170Z,8.10
2022-10-23T09:19:28.299Z,7.97
2022-10-23T09:21:57.039Z,6.30
2022-10-23T09:24:26.362Z,29.90
2022-10-23T09:26:54.743Z,4.00
2022-10-23T09:29:29.128Z,5.20
2022-10-23T09:31:58.722Z,5.25
2022-10-23T09:34:28.356Z,8.55
2022-10-23T09:36:58.693Z,3.97
2022-10-23T09:39:36.116Z,6.20
2022-10-23T09:42:25.938Z,2.63
2022-10-23T09:44:55.050Z,3.28
2022-10-23T09:47:25.731Z,4.65
2022-10-23T09:49:57.404Z,7.13
2022-10-23T09:52:38.819Z,6.70
2022-10-23T09:55:26.098Z,10.65
2022-10-23T09:57:55.191Z,62.28
2022-10-23T10:00:28.001Z,64.28
2022-10-23T10:02:56.671Z,18.50
2022-10-23T10:05:32.926Z,6.50
2022-10-23T10:08:10.315Z,6.40
2022-10-23T10:10:44.229Z,4.47
2022-10-23T10:13:40.332Z,3.28
2022-10-23T10:16:20.401Z,16.90
2022-10-23T10:19:05.198Z,14.45
2022-10-23T10:22:23.267Z,9.73
2022-10-23T10:25:09.266Z,26.08
2022-10-23T10:27:57.322Z,52.22
2022-10-23T10:30:25.805Z,29.55
2022-10-23T10:33:05.668Z,9.82
2022-10-23T10:35:47.796Z,5.78
2022-10-23T10:38:18.002Z,27.02
2022-10-23T10:41:09.902Z,43.95
2022-10-23T10:43:58.587Z,18.17
2022-10-23T10:46:35.547Z,34.05
2022-10-23T10:49:13.401Z,52.80
2022-10-23T10:52:01.023Z,14.50
2022-10-23T10:54:55.045Z,71.57
2022-10-23T10:57:22.222Z,22.87
2022-10-23T10:59:53.467Z,33.77
2022-10-23T11:02:32.447Z,8.37
2022-10-23T11:05:37.911Z,76.00
2022-10-23T11:08:21.882Z,33.10
2022-10-23T11:10:55.131Z,15.87
2022-10-23T11:13:30.007Z,11.83
2022-10-23T11:16:04.894Z,73.20
2022-10-23T11:18:34.028Z,35.43
2022-10-23T11:21:26.105Z,31.30
2022-10-23T11:24:16.093Z,51.80
2022-10-23T11:27:02.557Z,20.27
2022-10-23T11:29:54.575Z,8.03
2022-10-23T11:33:05.837Z,8.30
2022-10-23T11:35:45.664Z,7.37
2022-10-23T11:38:24.217Z,7.20
2022-10-23T11:41:01.271Z,5.97
2022-10-23T11:43:47.774Z,5.10
2022-10-23T11:46:32.431Z,13.83
2022-10-23T11:49:02.827Z,5.40
2022-10-23T11:51:41.822Z,4.37
2022-10-23T11:54:17.911Z,4.47
2022-10-23T11:57:16.141Z,3.70
2022-10-23T11:59:48.921Z,4.75
2022-10-23T12:02:21.561Z,6.80
2022-10-23T12:04:52.787Z,4.78
2022-10-23T12:07:33.888Z,7.38
2022-10-23T12:10:06.041Z,9.25
2022-10-23T12:12:42.848Z,6.07
2022-10-23T12:15:15.705Z,5.07
2022-10-23T12:17:44.066Z,3.83
2022-10-23T12:20:11.668Z,6.63
2022-10-23T12:23:01.068Z,4.97
2022-10-23T12:26:05.842Z,7.53
2022-10-23T12:29:02.671Z,3.97
2022-10-23T12:31:57.507Z,4.68
2022-10-23T12:34:59.443Z,5.50
2022-10-23T12:37:51.850Z,3.40
2022-10-23T12:40:19.482Z,3.80
2022-10-23T12:42:57.792Z,4.10
2022-10-23T12:45:35.542Z,3.95
2022-10-23T12:48:04.697Z,3.42
2022-10-23T12:50:34.433Z,6.82
2022-10-23T12:53:12.591Z,3.20
2022-10-23T12:55:56.940Z,4.57
2022-10-23T12:58:35.122Z,5.82
2022-10-23T13:01:07.481Z,4.13
2022-10-23T13:03:37.526Z,2.08
2022-10-23T13:06:06.218Z,3.30
2022-10-23T13:08:43.265Z,5.35
2022-10-23T13:11:17.626Z,3.72
2022-10-23T13:13:51.731Z,4.22
2022-10-23T13:16:24.644Z,3.08
2022-10-23T13:18:54.441Z,3.35
2022-10-23T13:21:28.931Z,2.50
2022-10-23T13:23:56.702Z,3.65
2022-10-23T13:26:45.863Z,2.17
2022-10-23T13:29:31.953Z,2.42
2022-10-23T13:32:13.508Z,5.13
2022-10-23T13:34:58.088Z,4.13
2022-10-23T13:37:31.727Z,2.85
2022-10-23T13:40:10.048Z,3.00
2022-10-23T13:42:37.329Z,1.48
2022-10-23T13:45:10.276Z,2.08
2022-10-23T13:47:37.575Z,4.55
2022-10-23T13:50:08.173Z,5.35
2022-10-23T13:52:39.498Z,2.63
2022-10-23T13:55:23.301Z,1.88
2022-10-23T13:57:50.793Z,2.47
2022-10-23T14:00:19.819Z,2.40
2022-10-23T14:02:47.591Z,1.95
2022-10-23T14:05:15.522Z,3.75
2022-10-23T14:07:43.587Z,4.72
2022-10-23T14:10:12.517Z,2.67
2022-10-23T14:12:45.745Z,5.97
2022-10-23T14:15:19.977Z,2.53
2022-10-23T14:17:48.904Z,5.25
2022-10-23T14:20:25.756Z,2.17
2022-10-23T14:22:55.803Z,5.28
2022-10-23T14:25:24.144Z,7.03
2022-10-23T14:30:21.382Z,2.63
2022-10-23T14:32:50.231Z,2.40
2022-10-23T14:35:17.499Z,4.20
2022-10-23T14:37:45.599Z,5.07
2022-10-23T14:40:13.339Z,3.70
2022-10-23T14:42:40.858Z,2.90
2022-10-23T14:45:08.742Z,1.60
2022-10-23T14:47:37.240Z,3.73
2022-10-23T14:50:06.862Z,6.57
2022-10-23T14:52:35.295Z,14.73
2022-10-23T14:55:02.840Z,31.43
2022-10-23T14:57:30.396Z,42.03
2022-10-23T14:59:57.760Z,12.13
2022-10-23T15:02:25.210Z,7.47
2022-10-23T15:04:52.568Z,4.37
2022-10-23T15:07:20.214Z,4.10
2022-10-23T15:09:47.670Z,4.30
2022-10-23T15:12:15.098Z,138.20
2022-10-23T15:14:42.603Z,129.40
2022-10-23T15:17:15.454Z,35.13
2022-10-23T15:19:43.742Z,49.97
2022-10-23T15:22:11.095Z,57.40
2022-10-23T15:24:38.646Z,65.83
2022-10-23T15:27:06.015Z,42.57
2022-10-23T15:29:33.465Z,50.70
2022-10-23T15:32:03.080Z,57.40
2022-10-23T15:34:32.770Z,42.50
2022-10-23T15:37:01.113Z,33.07
2022-10-23T15:39:34.039Z,37.83
2022-10-23T15:42:02.316Z,30.63
2022-10-23T15:44:35.825Z,31.27
2022-10-23T15:47:03.410Z,30.63
2022-10-23T15:49:30.823Z,35.73
2022-10-23T15:52:18.442Z,32.67
2022-10-23T15:54:45.742Z,39.00
2022-10-23T15:57:13.208Z,199.33
2022-10-23T15:59:40.566Z,258.60
2022-10-23T16:02:08.066Z,175.03
2022-10-23T16:04:35.928Z,78.33
2022-10-23T16:07:03.327Z,41.73
2022-10-23T16:09:30.658Z,25.63
2022-10-23T16:11:58.034Z,29.07
2022-10-23T16:14:25.342Z,18.60
2022-10-23T16:16:52.606Z,9.40
2022-10-23T16:19:20.056Z,15.20
2022-10-23T16:21:47.317Z,17.67
2022-10-23T16:24:14.612Z,17.07
2022-10-23T16:26:42.342Z,13.27
2022-10-23T16:29:10.336Z,10.93
2022-10-23T16:31:37.992Z,7.57
2022-10-23T16:34:06.150Z,8.47
2022-10-23T16:36:34.149Z,8.97
2022-10-23T16:39:03.525Z,92.30
2022-10-23T16:41:31.041Z,182.93
2022-10-23T16:43:59.306Z,148.90
2022-10-23T16:46:28.621Z,134.07
2022-10-23T16:48:56.327Z,90.17
2022-10-23T16:51:26.774Z,103.60
2022-10-23T16:53:55.008Z,93.90
2022-10-23T16:56:26.131Z,92.63
2022-10-23T16:58:53.523Z,93.13
2022-10-23T17:01:23.599Z,94.77
2022-10-23T17:03:52.400Z,90.63
2022-10-23T17:06:29.422Z,95.80
2022-10-23T17:08:58.601Z,104.87
2022-10-23T17:11:29.339Z,99.63
2022-10-23T17:14:01.923Z,85.10
2022-10-23T17:16:36.965Z,58.63
2022-10-23T17:19:20.526Z,47.63
2022-10-23T17:21:57.844Z,28.13
2022-10-23T17:24:26.037Z,39.00
2022-10-23T17:26:54.629Z,42.20
2022-10-23T17:29:22.646Z,225.77
2022-10-23T17:31:51.471Z,347.60
2022-10-23T17:34:23.993Z,316.27
2022-10-23T17:36:53.976Z,340.43
2022-10-23T17:39:25.000Z,253.00
2022-10-23T17:41:53.084Z,109.40
2022-10-23T17:44:21.046Z,75.23
2022-10-23T17:46:53.906Z,55.67
2022-10-23T17:49:23.703Z,111.27
2022-10-23T17:51:53.731Z,68.57
2022-10-23T17:54:22.042Z,64.37
2022-10-23T17:56:49.430Z,57.03
2022-10-23T17:59:22.407Z,113.73
2022-10-23T18:01:52.288Z,150.93
2022-10-23T18:04:22.922Z,84.83
2022-10-23T18:06:53.279Z,86.77
2022-10-23T18:09:22.679Z,89.17
2022-10-23T18:11:50.394Z,74.97
2022-10-23T18:14:20.192Z,67.63
2022-10-23T18:16:47.578Z,81.90
2022-10-23T18:19:18.109Z,84.70
2022-10-23T18:21:47.579Z,65.77
2022-10-23T18:24:16.005Z,61.37
2022-10-23T18:26:48.654Z,60.80
2022-10-23T18:29:17.678Z,52.37
2022-10-23T18:31:51.643Z,47.20
2022-10-23T18:34:21.682Z,52.70
2022-10-23T18:36:50.641Z,51.30
2022-10-23T18:39:25.527Z,29.13
2022-10-23T18:41:58.286Z,23.93
2022-10-23T18:44:29.709Z,24.10
2022-10-23T18:46:59.347Z,18.60
2022-10-23T18:49:32.679Z,20.97
2022-10-23T18:52:00.085Z,38.33
2022-10-23T18:54:30.718Z,50.43
2022-10-23T18:56:58.092Z,34.87
2022-10-23T18:59:25.768Z,40.40
2022-10-23T19:01:53.503Z,42.60
2022-10-23T19:04:20.973Z,52.47
2022-10-23T19:06:49.931Z,43.03
2022-10-23T19:09:17.295Z,32.20
2022-10-23T19:11:45.648Z,30.17
2022-10-23T19:14:20.109Z,23.30
2022-10-23T19:17:11.430Z,20.70
2022-10-23T19:19:45.861Z,21.37
2022-10-23T19:22:17.484Z,24.93
2022-10-23T19:24:53.366Z,19.37
2022-10-23T19:27:21.353Z,16.93
2022-10-23T19:29:51.527Z,21.73
2022-10-23T19:32:19.736Z,21.07
2022-10-23T19:34:47.474Z,13.83
2022-10-23T19:37:18.153Z,18.70
2022-10-23T19:39:46.605Z,41.83
2022-10-23T19:42:14.350Z,147.83
2022-10-23T19:44:42.068Z,75.37
2022-10-23T19:47:09.583Z,27.47
2022-10-23T19:49:41.056Z,19.23
2022-10-23T19:52:11.078Z,26.47
2022-10-23T19:54:41.411Z,33.13
2022-10-23T19:57:08.655Z,20.53
2022-10-23T19:59:40.124Z,24.10
2022-10-23T20:02:08.737Z,29.03
2022-10-23T20:04:36.845Z,27.53
2022-10-23T20:07:04.318Z,22.50
2022-10-23T20:09:32.192Z,21.00
2022-10-23T20:12:01.045Z,25.00
2022-10-23T20:14:28.338Z,25.77
2022-10-23T20:16:56.230Z,58.60
2022-10-23T20:19:23.818Z,127.83
2022-10-23T20:21:51.462Z,71.57
2022-10-23T20:24:20.478Z,48.97
2022-10-23T20:26:50.353Z,19.67
2022-10-23T20:29:18.326Z,126.30
2022-10-23T20:31:45.643Z,103.87
2022-10-23T20:34:13.665Z,64.23
2022-10-23T20:36:46.437Z,34.47
2022-10-23T20:39:20.841Z,29.57
2022-10-23T20:41:48.336Z,24.07
2022-10-23T20:46:51.016Z,33.43
2022-10-23T20:49:19.355Z,26.37
2022-10-23T20:51:55.925Z,25.17
2022-10-23T20:54:25.739Z,24.93
2022-10-23T20:56:53.441Z,26.20
2022-10-23T20:59:21.313Z,22.87
2022-10-23T21:01:50.429Z,17.70
2022-10-23T21:04:20.768Z,15.97
2022-10-23T21:07:08.829Z,19.93
2022-10-23T21:09:38.287Z,17.43
2022-10-23T21:12:06.933Z,16.03
2022-10-23T21:14:34.973Z,21.33
2022-10-23T21:17:02.634Z,31.87
2022-10-23T21:19:30.075Z,72.50
2022-10-23T21:21:58.185Z,43.83
2022-10-23T21:24:25.604Z,37.80
2022-10-23T21:26:52.851Z,37.57
2022-10-23T21:29:21.080Z,40.37
2022-10-23T21:32:03.909Z,41.73
2022-10-23T21:34:32.166Z,29.23
2022-10-23T21:37:12.615Z,29.60
2022-10-23T21:39:42.306Z,29.50
2022-10-23T21:42:09.710Z,34.67
2022-10-23T21:44:37.190Z,26.90
2022-10-23T21:47:04.682Z,28.37
2022-10-23T21:49:32.100Z,27.13
2022-10-23T21:52:01.528Z,25.53
2022-10-23T21:54:29.006Z,30.23
2022-10-23T21:56:56.333Z,27.47
2022-10-23T21:59:31.620Z,25.43
2022-10-23T22:02:00.598Z,25.00
2022-10-23T22:04:28.102Z,22.37
2022-10-23T22:06:55.713Z,15.20
2022-10-23T22:09:23.501Z,16.10
2022-10-23T22:11:52.462Z,14.07
2022-10-23T22:14:20.753Z,16.10
2022-10-23T22:16:49.014Z,16.53
2022-10-23T22:19:18.445Z,16.50
2022-10-23T22:21:46.706Z,17.80
2022-10-23T22:24:14.544Z,18.17
2022-10-23T22:26:51.866Z,52.60
2022-10-23T22:29:25.356Z,34.30
2022-10-23T22:31:53.096Z,42.33
2022-10-23T22:34:47.920Z,35.00
2022-10-23T22:37:12.488Z,37.00
2022-10-23T22:39:40.378Z,33.73
2022-10-23T22:42:08.063Z,26.30
2022-10-23T22:44:35.429Z,24.27
2022-10-23T22:47:02.907Z,22.97
2022-10-23T22:49:33.153Z,20.03
2022-10-23T22:52:00.619Z,22.67
2022-10-23T22:54:27.964Z,21.40
2022-10-23T22:56:55.206Z,18.27
2022-10-23T22:59:22.483Z,16.30
2022-10-23T23:01:50.487Z,16.40
2022-10-23T23:04:38.332Z,19.70
2022-10-23T23:07:09.281Z,23.87
2022-10-23T23:09:41.478Z,25.97
2022-10-23T23:12:11.488Z,23.67
2022-10-23T23:14:39.429Z,17.13
2022-10-23T23:17:08.525Z,12.30
2022-10-23T23:19:36.425Z,10.40
2022-10-23T23:22:07.757Z,9.90
2022-10-23T23:24:35.522Z,10.17
2022-10-23T23:27:02.955Z,16.10
2022-10-23T23:29:30.332Z,14.57
2022-10-23T23:31:57.895Z,13.20
2022-10-23T23:34:25.469Z,14.90
2022-10-23T23:36:52.997Z,14.07
2022-10-23T23:39:20.259Z,11.80
2022-10-23T23:41:47.820Z,12.93
2022-10-23T23:44:15.285Z,9.37
2022-10-23T23:46:42.638Z,10.73
2022-10-23T23:49:10.100Z,9.20
2022-10-23T23:51:37.570Z,12.00
2022-10-23T23:54:05.321Z,9.33
2022-10-23T23:56:32.685Z,12.80
2022-10-23T23:59:00.719Z,11.07
